Indian Lake, Indiana
Current Conditions -  °F | °C
As of 12:35 PM on Monday 22 Dec 2014 (Local Time) from KGWB Reporting Station
Haze Haze  
Wind Chill: 30°   Ceiling: 3700
Heat Index: 34°   Visibility: 5mi
Dew Point: 28°   Wind: 5mph
Humidity: 81%   Direction: 100°E
Pressure: 29.94"   Gusts: NA
Location:  41.4621°N, 85.1517°W
Report Text: KGWB 221735Z AUTO 10004KT 5SM HZ BKN037 OVC090 01/M02 A2994 RMK AO2
Loading
Personal Weather Stations






























Interactive Weather Map New forecast layout! Learn more

10-Day Weather Forecast

Advertisements
Track Severe Weather on mobile